Mahnomen, MN

1:42 PM CDT on August 27, 2016 (GMT -0500)
Gunderson Farm | | Change Station

Elev 1207 ft 47.46 °N, 96.04 °W | Updated 6 seconds ago

Heavy Rain
Heavy Rain
56.8 °F
Feels Like 56.8 °F
N
1.1
Wind Variable Wind from NNE
Gusts 2.5 mph

Today
High -- | Low -- °F
--% Chance of Precip.
Yesterday
High -- | Low -- °F
Precip. -- in
Pressure 30.01 in
Visibility 5.0 miles
Clouds Scattered Clouds 700 ft
Mostly Cloudy 3500 ft
Overcast 4600 ft
Dew Point 57 °F
Humidity 99%
Rainfall 0.97 in
Snow Depth Not available.
6:36 AM 8:12 PM
Waning Crescent, 22% visible
METAR KFSE 271835Z AUTO 34008KT 5SM +RA SCT007 BKN035 OVC046 13/12 A3001 RMK AO2 LTG DSNT SW P0011
Pressure 30.01 in
Visibility 5.0 miles
Clouds Scattered Clouds 700 ft
Mostly Cloudy 3500 ft
Overcast 4600 ft
Dew Point 57 °F
Humidity 99%
Rainfall 0.97 in
Snow Depth Not available.
6:36 AM 8:12 PM
Waning Crescent, 22% visible
METAR KFSE 271835Z AUTO 34008KT 5SM +RA SCT007 BKN035 OVC046 13/12 A3001 RMK AO2 LTG DSNT SW P0011

10-Day Weather Forecast

Almanac

Astronomy

Aug. 27, 2016 Rise Set
Actual Time
Civil Twilight
Nautical Twilight
Astronomical Twilight
Moon
Length of Visible Light
Length of Day
Tomorrow will be .
, % of the Moon is Illuminated

Today's Extremes

State Highs State Lows

Community

WunderPhotos

Upload Photos

1,935,399 photos uploaded!

WunderBlog® & News

Nearby

Air Quality

  Air Quality AQ Index Pollutant
Not available.

Snow Depth

Station Depth Elevation

Earthquake Activity

City Distance Mag. Time & Date
Minimum magnitude displayed is 2.5.

Coastal Water Temperatures

Place Temperature

Stations

Nearby Weather Stations

Station Location Temp. Windchill Dew Point Humidity Wind Precip. Elev Updated Type
                   

Watches & Warnings

There are currently no watches in effect.